Time;durP1;ratioP1;P1;durP2;ratioP2;P2;SDS_P1;SDS_P2;PMS_P1;PMS_P2;Temp;Humidity;BMP_temperature;BMP_pressure;BME280_temperature;BME280_humidity;BME280_pressure;Samples;Min_cycle;Max_cycle;Signal;HPM_P1;HPM_P2
2023/12/17 00:01:28;;;;;;;19.73;11.43;;;9.90;99.90;;;;;;4979690;28;20969;-73
2023/12/17 00:03:54;;;;;;;15.70;10.18;;;9.90;99.90;;;;;;4980910;28;20092;-73
2023/12/17 00:06:19;;;;;;;15.63;10.75;;;9.90;99.90;;;;;;4963907;28;20073;-73
2023/12/17 00:08:46;;;;;;;16.33;10.23;;;9.90;99.90;;;;;;4980339;28;20042;-73
2023/12/17 00:11:11;;;;;;;12.57;10.13;;;9.90;99.90;;;;;;4963609;28;20035;-73
2023/12/17 00:13:37;;;;;;;17.00;10.07;;;9.90;99.90;;;;;;4980934;28;20035;-73
2023/12/17 00:16:04;;;;;;;16.42;10.07;;;9.90;99.90;;;;;;4980137;28;20569;-73
2023/12/17 00:18:30;;;;;;;15.02;10.05;;;9.90;99.90;;;;;;4978012;28;20054;-73
2023/12/17 00:20:59;;;;;;;14.77;10.55;;;9.90;99.90;;;;;;4980630;28;20494;-73
2023/12/17 00:23:24;;;;;;;14.43;10.07;;;9.90;99.90;;;;;;4979270;28;20105;-73
2023/12/17 00:25:50;;;;;;;19.92;11.18;;;9.90;99.90;;;;;;4964126;28;20054;-73
2023/12/17 00:28:16;;;;;;;19.17;11.15;;;9.90;99.90;;;;;;4964568;28;20491;-73
2023/12/17 00:30:41;;;;;;;17.20;10.57;;;9.90;99.90;;;;;;4979592;28;20050;-72
2023/12/17 00:33:07;;;;;;;14.50;10.93;;;9.90;99.90;;;;;;4980488;28;20550;-72
2023/12/17 00:35:33;;;;;;;14.13;9.98;;;9.80;99.90;;;;;;4961582;28;20042;-72
2023/12/17 00:37:59;;;;;;;14.23;10.50;;;9.90;99.90;;;;;;4978040;28;20054;-72
2023/12/17 00:40:24;;;;;;;14.05;10.68;;;9.90;99.90;;;;;;4998643;28;20128;-72
2023/12/17 00:42:50;;;;;;;17.55;10.65;;;9.90;99.90;;;;;;4981472;28;20078;-80
2023/12/17 00:45:16;;;;;;;16.63;11.15;;;9.90;99.90;;;;;;4980275;28;20070;-79
2023/12/17 00:47:42;;;;;;;19.92;10.63;;;9.90;99.90;;;;;;4976589;28;20046;-81
2023/12/17 00:50:08;;;;;;;15.32;10.30;;;9.90;99.90;;;;;;4996896;28;20038;-81
2023/12/17 00:52:34;;;;;;;14.50;10.13;;;9.90;99.90;;;;;;4980612;28;20121;-79
2023/12/17 00:55:00;;;;;;;17.30;10.75;;;9.90;99.90;;;;;;4981191;28;20065;-81
2023/12/17 00:57:29;;;;;;;14.65;10.40;;;9.90;99.90;;;;;;4993933;28;20050;-80
2023/12/17 00:59:55;;;;;;;15.00;10.50;;;9.90;99.90;;;;;;4964347;28;20058;-80
2023/12/17 01:02:21;;;;;;;19.25;10.02;;;9.90;99.90;;;;;;4962974;28;20496;-81
2023/12/17 01:04:47;;;;;;;14.00;10.38;;;9.90;99.90;;;;;;4976945;28;20525;-81
2023/12/17 01:07:13;;;;;;;14.15;10.20;;;9.90;99.90;;;;;;4975277;28;20062;-80
2023/12/17 01:09:38;;;;;;;13.40;9.75;;;9.90;99.90;;;;;;4976562;28;20043;-80
2023/12/17 01:12:05;;;;;;;22.90;10.00;;;9.90;99.90;;;;;;4980844;28;20104;-73
2023/12/17 01:14:34;;;;;;;13.32;9.85;;;9.90;99.90;;;;;;4958877;28;20046;-73
2023/12/17 01:17:04;;;;;;;14.93;9.30;;;9.90;99.90;;;;;;4959621;28;20343;-73
2023/12/17 01:19:30;;;;;;;14.95;10.02;;;9.90;99.90;;;;;;4980426;28;20143;-73
2023/12/17 01:21:57;;;;;;;17.52;9.68;;;9.90;99.90;;;;;;4978168;28;20046;-82
2023/12/17 01:24:23;;;;;;;16.08;10.07;;;9.90;99.90;;;;;;4978481;28;20129;-81
2023/12/17 01:26:49;;;;;;;17.83;11.18;;;9.90;99.90;;;;;;4956058;28;20078;-81
2023/12/17 01:29:15;;;;;;;16.60;10.73;;;9.90;99.90;;;;;;4978256;28;20750;-81
2023/12/17 01:31:40;;;;;;;19.02;10.57;;;9.90;99.90;;;;;;4991903;28;20038;-80
2023/12/17 01:34:09;;;;;;;14.85;9.48;;;9.90;99.90;;;;;;4979443;28;20502;-81
2023/12/17 01:36:35;;;;;;;19.25;10.23;;;9.90;99.90;;;;;;4976676;28;20062;-81
2023/12/17 01:39:00;;;;;;;17.85;9.93;;;9.90;99.90;;;;;;4993909;28;20494;-81
2023/12/17 01:41:26;;;;;;;16.00;9.35;;;9.90;99.90;;;;;;4961047;28;20107;-81
2023/12/17 01:43:52;;;;;;;18.23;10.57;;;9.90;99.90;;;;;;4978340;28;20062;-80
2023/12/17 01:46:18;;;;;;;13.30;9.20;;;9.90;99.90;;;;;;5005779;28;20397;-82
2023/12/17 01:48:44;;;;;;;15.88;10.20;;;10.00;99.90;;;;;;4977220;28;20043;-82
2023/12/17 01:51:11;;;;;;;17.27;10.65;;;10.00;99.90;;;;;;4972893;28;20422;-81
2023/12/17 01:53:36;;;;;;;17.58;10.70;;;10.00;99.90;;;;;;4989202;28;20061;-80
2023/12/17 01:56:03;;;;;;;16.15;9.93;;;10.00;99.90;;;;;;5026097;28;20514;-81
2023/12/17 01:58:29;;;;;;;18.13;11.10;;;10.00;99.90;;;;;;5008798;28;20752;-81
2023/12/17 02:00:56;;;;;;;19.58;11.02;;;10.00;99.90;;;;;;5030028;28;20050;-81
2023/12/17 02:03:22;;;;;;;14.18;10.15;;;10.00;99.90;;;;;;5027274;28;20044;-81
2023/12/17 02:05:48;;;;;;;18.45;10.48;;;10.00;99.90;;;;;;5034999;28;20055;-80
2023/12/17 02:08:14;;;;;;;19.80;10.75;;;10.00;99.90;;;;;;5028813;28;20138;-81
2023/12/17 02:10:40;;;;;;;15.93;9.98;;;10.00;99.90;;;;;;5015094;28;20106;-80
2023/12/17 02:13:09;;;;;;;17.23;11.52;;;10.00;99.90;;;;;;5041628;28;20038;-81
2023/12/17 02:15:39;;;;;;;17.17;10.95;;;10.00;99.90;;;;;;5015600;28;20053;-81
2023/12/17 02:18:05;;;;;;;18.70;10.88;;;10.00;99.90;;;;;;4992500;28;20130;-81
2023/12/17 02:20:32;;;;;;;14.50;11.15;;;10.00;99.90;;;;;;5003052;28;20036;-81
2023/12/17 02:22:58;;;;;;;20.10;11.48;;;10.00;99.90;;;;;;5031279;28;20058;-79
2023/12/17 02:25:24;;;;;;;16.13;11.48;;;10.00;99.90;;;;;;4976363;28;20442;-80
2023/12/17 02:27:50;;;;;;;19.27;11.85;;;10.00;99.90;;;;;;4982994;28;20060;-80
2023/12/17 02:30:16;;;;;;;19.95;11.57;;;10.00;99.90;;;;;;5030282;28;20046;-79
2023/12/17 02:32:42;;;;;;;19.25;11.73;;;10.00;99.90;;;;;;5046915;28;20633;-80
2023/12/17 02:35:08;;;;;;;16.65;11.63;;;10.00;99.90;;;;;;5033760;28;20044;-81
2023/12/17 02:37:33;;;;;;;15.93;11.70;;;10.00;99.90;;;;;;5022429;28;20032;-80
2023/12/17 02:39:59;;;;;;;17.27;12.13;;;10.00;99.90;;;;;;5023415;28;20036;-81
2023/12/17 02:42:25;;;;;;;18.05;11.02;;;10.00;99.90;;;;;;5041934;28;20093;-80
2023/12/17 02:44:51;;;;;;;23.58;11.60;;;10.00;99.90;;;;;;5035146;28;20040;-81
2023/12/17 02:47:17;;;;;;;18.27;12.23;;;10.00;99.90;;;;;;5064183;28;20058;-81
2023/12/17 02:49:42;;;;;;;18.45;11.63;;;10.00;99.90;;;;;;5060135;28;20053;-81
2023/12/17 02:52:08;;;;;;;15.48;11.07;;;10.00;99.90;;;;;;5045684;28;20452;-80
2023/12/17 02:54:35;;;;;;;16.13;11.00;;;10.00;99.90;;;;;;5007838;28;20248;-81
2023/12/17 02:57:01;;;;;;;16.95;10.77;;;10.00;99.90;;;;;;5021735;28;20063;-81
2023/12/17 02:59:26;;;;;;;17.00;11.65;;;10.00;99.90;;;;;;5036127;28;20051;-82
2023/12/17 03:01:52;;;;;;;19.80;12.02;;;10.00;99.90;;;;;;5038128;28;20043;-80
2023/12/17 03:04:18;;;;;;;17.25;12.13;;;10.00;99.90;;;;;;5022477;28;20035;-72
2023/12/17 03:06:44;;;;;;;17.42;11.88;;;10.10;99.90;;;;;;5044756;28;20044;-73
2023/12/17 03:09:11;;;;;;;14.45;10.68;;;10.10;99.90;;;;;;5040677;28;20052;-72
2023/12/17 03:11:37;;;;;;;14.63;10.80;;;10.00;99.90;;;;;;5053741;28;20044;-72
2023/12/17 03:14:03;;;;;;;18.52;10.63;;;10.10;99.90;;;;;;5025608;28;20166;-72
2023/12/17 03:16:29;;;;;;;14.57;10.00;;;10.10;99.90;;;;;;5020463;28;20119;-72
2023/12/17 03:18:54;;;;;;;15.85;10.43;;;10.00;99.90;;;;;;5050480;28;20080;-73
2023/12/17 03:21:23;;;;;;;18.13;10.38;;;10.00;99.90;;;;;;5056473;28;20055;-72
2023/12/17 03:23:51;;;;;;;15.18;9.65;;;10.00;99.90;;;;;;5005217;28;20070;-73
2023/12/17 03:26:17;;;;;;;13.57;9.73;;;10.10;99.90;;;;;;5041777;28;20047;-72
2023/12/17 03:28:43;;;;;;;14.57;9.60;;;10.10;99.90;;;;;;5037233;28;20397;-73
2023/12/17 03:31:14;;;;;;;17.08;10.40;;;10.10;99.90;;;;;;5059486;28;20039;-72
2023/12/17 03:33:44;;;;;;;14.05;9.95;;;10.10;99.90;;;;;;5051011;28;20128;-72
2023/12/17 03:36:19;;;;;;;15.15;10.43;;;10.00;99.90;;;;;;5030713;28;20048;-73
2023/12/17 03:38:45;;;;;;;16.48;9.93;;;10.10;99.90;;;;;;5068545;28;20075;-73
2023/12/17 03:41:26;;;;;;;18.27;10.27;;;10.10;99.90;;;;;;5047469;28;20039;-73
2023/12/17 03:43:52;;;;;;;;;;;10.00;99.90;;;;;;5034534;28;20068;-72
2023/12/17 03:46:19;;;;;;;15.35;9.82;;;10.00;99.90;;;;;;4984184;28;20164;-72
2023/12/17 03:48:45;;;;;;;16.45;10.70;;;10.00;99.90;;;;;;4974991;28;20127;-72
2023/12/17 03:51:11;;;;;;;14.90;10.15;;;10.00;99.90;;;;;;5057278;27;20046;-72
2023/12/17 03:53:36;;;;;;;14.82;9.73;;;10.00;99.90;;;;;;5045718;28;20393;-72
2023/12/17 03:56:02;;;;;;;13.70;9.10;;;10.00;99.90;;;;;;5008057;28;20038;-73
2023/12/17 03:58:30;;;;;;;15.80;9.32;;;10.00;99.90;;;;;;4995973;28;20142;-73
2023/12/17 04:00:56;;;;;;;16.65;9.25;;;10.00;99.90;;;;;;4963055;28;20055;-73
2023/12/17 04:03:22;;;;;;;12.65;9.35;;;10.00;99.90;;;;;;4978365;28;20060;-73
2023/12/17 04:05:48;;;;;;;13.13;9.15;;;10.00;99.90;;;;;;4995726;28;20417;-73
2023/12/17 04:08:13;;;;;;;11.55;9.43;;;10.10;99.90;;;;;;5035833;28;20048;-72
2023/12/17 04:10:39;;;;;;;14.90;8.95;;;10.00;99.90;;;;;;5042252;28;20129;-73
2023/12/17 04:13:05;;;;;;;15.98;9.73;;;10.00;99.90;;;;;;5045732;28;20052;-73
2023/12/17 04:15:31;;;;;;;16.17;10.15;;;10.00;99.90;;;;;;5034901;28;20496;-73
2023/12/17 04:17:56;;;;;;;11.20;9.30;;;10.00;99.90;;;;;;5041584;28;20080;-73
2023/12/17 04:20:22;;;;;;;13.40;9.40;;;10.00;99.90;;;;;;5005110;28;20057;-73
2023/12/17 04:22:48;;;;;;;13.65;9.13;;;10.00;99.90;;;;;;4990603;28;20046;-73
2023/12/17 04:25:14;;;;;;;12.35;9.13;;;10.00;99.90;;;;;;5003626;28;20507;-73
2023/12/17 04:27:40;;;;;;;15.27;9.73;;;10.00;99.90;;;;;;5029475;28;20772;-74
2023/12/17 04:30:07;;;;;;;14.63;10.60;;;10.00;99.90;;;;;;5004496;28;20089;-73
2023/12/17 04:32:32;;;;;;;14.50;10.15;;;10.00;99.90;;;;;;5032484;28;20070;-73
2023/12/17 04:34:58;;;;;;;13.60;9.35;;;10.00;99.90;;;;;;5025417;28;20054;-73
2023/12/17 04:37:24;;;;;;;13.35;9.05;;;10.00;99.90;;;;;;5051623;28;20036;-73
2023/12/17 04:39:50;;;;;;;16.23;9.55;;;10.00;99.90;;;;;;5031363;28;20696;-73
2023/12/17 04:42:16;;;;;;;17.33;9.55;;;10.00;99.90;;;;;;5035182;28;20350;-74
2023/12/17 04:44:42;;;;;;;17.00;9.20;;;10.00;99.90;;;;;;5029098;28;20032;-73
2023/12/17 04:47:08;;;;;;;14.07;9.55;;;10.00;99.90;;;;;;5061765;27;20053;-73
2023/12/17 04:49:34;;;;;;;13.98;10.43;;;10.00;99.90;;;;;;5032364;28;20054;-73
2023/12/17 04:52:00;;;;;;;13.40;9.57;;;10.00;99.90;;;;;;4987279;28;20125;-73
2023/12/17 04:54:26;;;;;;;14.57;9.07;;;10.00;99.90;;;;;;5001228;28;20672;-73
2023/12/17 04:56:54;;;;;;;13.88;9.32;;;10.00;99.90;;;;;;5026856;28;20077;-72
2023/12/17 04:59:21;;;;;;;14.05;9.70;;;10.00;99.90;;;;;;5006297;28;20403;-73
2023/12/17 05:01:53;;;;;;;16.23;9.00;;;10.00;99.90;;;;;;5033179;28;20036;-73
2023/12/17 05:04:18;;;;;;;11.20;9.23;;;9.90;99.90;;;;;;5035606;28;20127;-73
2023/12/17 05:06:44;;;;;;;14.00;9.27;;;9.90;99.90;;;;;;5036183;28;20470;-73
2023/12/17 05:09:10;;;;;;;12.38;8.10;;;9.90;99.90;;;;;;5056300;27;20046;-73
2023/12/17 05:11:36;;;;;;;11.98;7.80;;;9.90;99.90;;;;;;5072616;27;20055;-73
2023/12/17 05:14:02;;;;;;;14.45;8.02;;;9.90;99.90;;;;;;4983340;28;20047;-73
2023/12/17 05:16:27;;;;;;;11.57;7.25;;;9.90;99.90;;;;;;5013756;28;20498;-73
2023/12/17 05:18:53;;;;;;;12.20;8.18;;;9.90;99.90;;;;;;5003660;28;20042;-72
2023/12/17 05:21:19;;;;;;;11.73;7.53;;;9.90;99.90;;;;;;4973603;28;20548;-73
2023/12/17 05:23:45;;;;;;;11.95;7.45;;;9.90;99.90;;;;;;5006817;28;20046;-73
2023/12/17 05:26:10;;;;;;;12.70;7.43;;;9.90;99.90;;;;;;5020279;28;20109;-73
2023/12/17 05:28:37;;;;;;;9.18;6.30;;;9.90;99.90;;;;;;5022236;28;20046;-73
2023/12/17 05:31:04;;;;;;;11.18;7.85;;;9.90;99.90;;;;;;5016553;28;20560;-73
2023/12/17 05:33:30;;;;;;;7.90;6.53;;;9.90;99.90;;;;;;4996406;28;20072;-73
2023/12/17 05:35:56;;;;;;;14.15;7.68;;;9.90;99.90;;;;;;4993381;28;21208;-73
2023/12/17 05:38:21;;;;;;;9.73;6.95;;;9.90;99.90;;;;;;5031452;28;20051;-73
2023/12/17 05:40:47;;;;;;;9.35;6.55;;;9.90;99.90;;;;;;5005132;28;20043;-73
2023/12/17 05:43:13;;;;;;;9.75;6.78;;;9.90;99.90;;;;;;4985583;28;20046;-72
2023/12/17 05:45:39;;;;;;;7.97;6.55;;;9.80;99.90;;;;;;4978003;28;20128;-73
2023/12/17 05:48:08;;;;;;;9.20;7.28;;;9.90;99.90;;;;;;5002801;28;20125;-73
2023/12/17 05:50:34;;;;;;;11.52;7.35;;;9.80;99.90;;;;;;5005686;28;20053;-73
2023/12/17 05:53:00;;;;;;;13.70;7.55;;;9.80;99.90;;;;;;4973761;28;20054;-73
2023/12/17 05:55:28;;;;;;;10.50;7.30;;;9.80;99.90;;;;;;5029856;28;20043;-73
2023/12/17 05:57:54;;;;;;;12.18;7.30;;;9.80;99.90;;;;;;5010701;28;20602;-73
2023/12/17 06:00:20;;;;;;;12.43;7.63;;;9.70;99.90;;;;;;4999515;28;20104;-73
2023/12/17 06:02:46;;;;;;;13.55;7.28;;;9.70;99.90;;;;;;4991244;28;20036;-73
2023/12/17 06:05:11;;;;;;;9.73;6.80;;;9.70;99.90;;;;;;5024616;28;20054;-73
2023/12/17 06:07:37;;;;;;;10.75;7.15;;;9.70;99.90;;;;;;5018958;28;20034;-73
2023/12/17 06:10:07;;;;;;;11.35;7.30;;;9.70;99.90;;;;;;5042723;28;20132;-73
2023/12/17 06:12:33;;;;;;;8.98;5.47;;;9.70;99.90;;;;;;5029189;28;20050;-73
2023/12/17 06:14:59;;;;;;;9.50;5.05;;;9.70;99.90;;;;;;5026019;28;20048;-73
2023/12/17 06:17:24;;;;;;;9.05;5.35;;;9.70;99.90;;;;;;5043013;28;20432;-73
2023/12/17 06:19:50;;;;;;;11.32;5.95;;;9.70;99.90;;;;;;5036249;28;20158;-73
2023/12/17 06:22:16;;;;;;;10.05;5.82;;;9.70;99.90;;;;;;5045075;28;20187;-73
2023/12/17 06:24:42;;;;;;;8.98;6.05;;;9.60;99.90;;;;;;5018709;28;20032;-73
2023/12/17 06:27:18;;;;;;;9.13;5.22;;;9.60;99.90;;;;;;5040416;28;20044;-73
2023/12/17 06:29:48;;;;;;;12.27;6.25;;;9.60;99.90;;;;;;5026226;28;20579;-73
2023/12/17 06:32:15;;;;;;;10.88;6.05;;;9.60;99.90;;;;;;5021089;28;20032;-74
2023/12/17 06:34:42;;;;;;;11.20;7.13;;;9.60;99.90;;;;;;5036144;28;20119;-73
2023/12/17 06:37:08;;;;;;;13.32;7.90;;;9.60;99.90;;;;;;5028836;28;20038;-73
2023/12/17 06:39:34;;;;;;;11.88;7.43;;;9.60;99.90;;;;;;5045142;28;20495;-73
2023/12/17 06:42:00;;;;;;;12.55;7.85;;;9.60;99.90;;;;;;5017322;28;20040;-73
2023/12/17 06:44:28;;;;;;;12.52;8.57;;;9.60;99.90;;;;;;5049089;28;20055;-73
2023/12/17 06:46:54;;;;;;;12.48;8.35;;;9.60;99.90;;;;;;5020116;28;20461;-72
2023/12/17 06:49:20;;;;;;;14.52;9.63;;;9.60;99.90;;;;;;5033176;28;20046;-72
2023/12/17 06:51:46;;;;;;;12.80;8.73;;;9.60;99.90;;;;;;5021181;28;20513;-73
2023/12/17 06:54:11;;;;;;;13.50;9.40;;;9.70;99.90;;;;;;5042898;28;20105;-73
2023/12/17 06:56:37;;;;;;;15.75;9.38;;;9.60;99.90;;;;;;5021908;28;20068;-73
2023/12/17 06:59:06;;;;;;;12.18;9.25;;;9.80;99.90;;;;;;5058951;28;20121;-73
2023/12/17 07:01:32;;;;;;;12.75;9.25;;;9.70;99.90;;;;;;5032455;28;20407;-73
2023/12/17 07:03:57;;;;;;;11.38;9.35;;;9.70;99.90;;;;;;4982616;28;20043;-73
2023/12/17 07:06:23;;;;;;;16.05;9.48;;;9.70;99.90;;;;;;5028487;28;20171;-72
2023/12/17 07:08:49;;;;;;;16.98;9.38;;;9.70;99.90;;;;;;5043560;28;20089;-73
2023/12/17 07:11:15;;;;;;;11.90;8.43;;;9.70;99.90;;;;;;5043543;28;20085;-73
2023/12/17 07:13:41;;;;;;;17.52;8.43;;;9.60;99.90;;;;;;5029625;28;20120;-73
2023/12/17 07:16:08;;;;;;;14.48;9.32;;;9.60;99.90;;;;;;5051232;28;20066;-73
2023/12/17 07:18:33;;;;;;;14.38;9.98;;;9.60;99.90;;;;;;5028244;28;20074;-74
2023/12/17 07:20:59;;;;;;;10.07;8.55;;;9.60;99.90;;;;;;4980704;28;20084;-73
2023/12/17 07:23:27;;;;;;;17.10;9.73;;;9.70;99.90;;;;;;5007687;28;20043;-73
2023/12/17 07:25:53;;;;;;;17.90;9.52;;;9.60;99.90;;;;;;5040991;28;20032;-73
2023/12/17 07:28:19;;;;;;;13.75;10.13;;;9.60;99.90;;;;;;5029901;28;21209;-72
2023/12/17 07:30:44;;;;;;;17.75;10.18;;;9.60;99.90;;;;;;5076076;27;20043;-72
2023/12/17 07:33:10;;;;;;;17.38;9.98;;;9.60;99.90;;;;;;5026046;28;20048;-72
2023/12/17 07:35:36;;;;;;;11.77;9.45;;;9.60;99.90;;;;;;5054936;28;20037;-72
2023/12/17 07:38:02;;;;;;;14.30;10.63;;;9.60;99.90;;;;;;5088926;27;20055;-72
2023/12/17 07:40:28;;;;;;;16.83;12.45;;;9.60;99.90;;;;;;5038133;28;20040;-72
2023/12/17 07:42:54;;;;;;;13.95;12.05;;;9.60;99.90;;;;;;5030116;28;20065;-74
2023/12/17 07:45:20;;;;;;;20.13;14.13;;;9.60;99.90;;;;;;5023725;28;20042;-73
2023/12/17 07:47:45;;;;;;;15.68;12.90;;;9.60;99.90;;;;;;5045705;28;20077;-81
2023/12/17 07:50:11;;;;;;;16.55;13.43;;;9.60;99.90;;;;;;5040446;28;20044;-80
2023/12/17 07:52:39;;;;;;;15.35;13.23;;;9.60;99.90;;;;;;5032886;28;20046;-81
2023/12/17 07:55:06;;;;;;;16.70;12.77;;;9.60;99.90;;;;;;5059904;28;20044;-74
2023/12/17 07:57:31;;;;;;;15.25;12.70;;;9.60;99.90;;;;;;5047272;28;20048;-73
2023/12/17 07:59:57;;;;;;;16.55;12.48;;;9.50;99.90;;;;;;5071318;27;20055;-73
2023/12/17 08:02:23;;;;;;;15.75;12.57;;;9.50;99.90;;;;;;5031962;28;20042;-73
2023/12/17 08:04:49;;;;;;;16.02;12.45;;;9.50;99.90;;;;;;5047210;28;20032;-73
2023/12/17 08:07:15;;;;;;;17.65;12.57;;;9.50;99.90;;;;;;4980571;28;20372;-72
2023/12/17 08:09:41;;;;;;;19.33;13.15;;;9.50;99.90;;;;;;4968367;28;20520;-73
2023/12/17 08:12:07;;;;;;;19.45;13.88;;;9.50;99.90;;;;;;4964284;28;20053;-72
2023/12/17 08:14:33;;;;;;;15.40;13.45;;;9.50;99.90;;;;;;5035784;27;20391;-72
2023/12/17 08:16:59;;;;;;;20.77;13.95;;;9.50;99.90;;;;;;5025445;28;20042;-72
2023/12/17 08:19:26;;;;;;;19.20;14.68;;;9.50;99.90;;;;;;5034424;28;20050;-73
2023/12/17 08:21:52;;;;;;;20.15;14.00;;;9.50;99.90;;;;;;5031085;28;20050;-73
2023/12/17 08:24:17;;;;;;;18.38;12.82;;;9.50;99.90;;;;;;5035707;28;20403;-73
2023/12/17 08:26:43;;;;;;;22.52;12.95;;;9.50;99.90;;;;;;5060900;27;20377;-73
2023/12/17 08:29:09;;;;;;;18.20;12.15;;;9.50;99.90;;;;;;5064038;28;20046;-73
2023/12/17 08:31:35;;;;;;;19.75;12.25;;;9.50;99.90;;;;;;5030170;28;20105;-73
2023/12/17 08:34:00;;;;;;;18.77;13.10;;;9.50;99.90;;;;;;5035116;28;20139;-73
2023/12/17 08:36:28;;;;;;;17.75;11.77;;;9.50;99.90;;;;;;5032961;28;20096;-73
2023/12/17 08:38:56;;;;;;;22.35;13.13;;;9.50;99.90;;;;;;5037055;28;20040;-73
2023/12/17 08:41:22;;;;;;;19.95;12.93;;;9.50;99.90;;;;;;5084915;27;20135;-73
2023/12/17 08:43:48;;;;;;;23.17;13.45;;;9.50;99.90;;;;;;5030217;28;20184;-73
2023/12/17 08:46:14;;;;;;;18.08;13.45;;;9.50;99.90;;;;;;5028787;28;20559;-73
2023/12/17 08:48:39;;;;;;;22.85;14.02;;;9.50;99.90;;;;;;5041326;28;20507;-73
2023/12/17 08:51:05;;;;;;;20.52;14.15;;;9.50;99.90;;;;;;5046679;28;20504;-74
2023/12/17 08:53:31;;;;;;;21.27;15.57;;;9.50;99.90;;;;;;4999991;28;20135;-73
2023/12/17 08:55:57;;;;;;;21.73;15.60;;;9.50;99.90;;;;;;5023636;28;20054;-73
2023/12/17 08:58:23;;;;;;;23.55;15.98;;;9.50;99.90;;;;;;5016414;28;20143;-73
2023/12/17 09:00:48;;;;;;;21.60;15.80;;;9.50;99.90;;;;;;5049435;28;20061;-73
2023/12/17 09:03:14;;;;;;;23.52;17.05;;;9.50;99.90;;;;;;5046776;28;20052;-74
2023/12/17 09:05:40;;;;;;;23.83;17.90;;;9.50;99.90;;;;;;5063150;28;20499;-73
2023/12/17 09:08:06;;;;;;;27.52;18.85;;;9.60;99.90;;;;;;5055393;28;20048;-73
2023/12/17 09:10:31;;;;;;;24.77;19.27;;;9.60;99.90;;;;;;5045620;28;20277;-73
2023/12/17 09:12:57;;;;;;;23.80;18.98;;;9.60;99.90;;;;;;5056519;28;20052;-73
2023/12/17 09:15:24;;;;;;;30.00;21.58;;;9.60;99.90;;;;;;5030949;28;20054;-73
2023/12/17 09:17:50;;;;;;;25.83;20.58;;;9.60;99.90;;;;;;5057279;28;20138;-74
2023/12/17 09:20:16;;;;;;;31.85;22.55;;;9.60;99.90;;;;;;5046428;28;20079;-74
2023/12/17 09:22:42;;;;;;;29.80;22.02;;;9.60;99.90;;;;;;5042678;28;20036;-73
2023/12/17 09:25:09;;;;;;;28.80;23.58;;;9.60;99.90;;;;;;5038430;28;20067;-73
2023/12/17 09:27:35;;;;;;;30.85;23.92;;;9.70;99.90;;;;;;5039460;28;20322;-73
2023/12/17 09:30:01;;;;;;;29.90;23.92;;;9.70;99.90;;;;;;5045502;28;20047;-73
2023/12/17 09:32:27;;;;;;;28.30;23.73;;;9.70;99.90;;;;;;5042344;28;20051;-74
2023/12/17 09:34:53;;;;;;;28.42;22.10;;;9.70;99.90;;;;;;5038374;28;20074;-74
2023/12/17 09:37:20;;;;;;;27.35;21.23;;;9.70;99.90;;;;;;5025829;28;20518;-73
2023/12/17 09:39:45;;;;;;;28.70;23.92;;;9.70;99.90;;;;;;5046794;28;20043;-73
2023/12/17 09:42:12;;;;;;;26.83;23.10;;;9.70;99.90;;;;;;5016489;28;20445;-73
2023/12/17 09:44:39;;;;;;;31.83;24.45;;;9.70;99.90;;;;;;5060262;28;20038;-72
2023/12/17 09:47:05;;;;;;;31.58;24.85;;;9.70;99.90;;;;;;5044724;28;20044;-72
2023/12/17 09:49:30;;;;;;;32.75;24.42;;;9.80;99.90;;;;;;5041493;28;20053;-72
2023/12/17 09:52:04;;;;;;;31.88;25.05;;;9.80;99.90;;;;;;5043737;28;20067;-73
2023/12/17 09:54:30;;;;;;;30.98;24.55;;;9.70;99.90;;;;;;5027993;28;20075;-73
2023/12/17 09:56:57;;;;;;;31.20;25.63;;;9.70;99.90;;;;;;5044128;28;20500;-73
2023/12/17 09:59:23;;;;;;;31.98;27.33;;;9.70;99.90;;;;;;5037704;28;20043;-73
2023/12/17 10:01:48;;;;;;;38.88;27.85;;;9.70;99.90;;;;;;5037518;28;20051;-73
2023/12/17 10:04:14;;;;;;;36.30;25.70;;;9.70;99.90;;;;;;5047000;28;20044;-72
2023/12/17 10:06:40;;;;;;;33.40;26.38;;;9.70;99.90;;;;;;5060201;28;20514;-73
2023/12/17 10:09:08;;;;;;;34.40;25.77;;;9.70;99.90;;;;;;4986671;28;20074;-72
2023/12/17 10:11:34;;;;;;;33.10;25.85;;;9.70;99.90;;;;;;5030505;28;20042;-72
2023/12/17 10:14:03;;;;;;;32.25;24.95;;;9.70;99.90;;;;;;5054943;28;20089;-72
2023/12/17 10:16:31;;;;;;;33.60;25.70;;;9.70;99.90;;;;;;5058236;28;20052;-72
2023/12/17 10:18:57;;;;;;;34.22;26.92;;;9.70;99.90;;;;;;5064224;28;20055;-72
2023/12/17 10:21:23;;;;;;;35.10;25.83;;;9.70;99.90;;;;;;5075600;27;20048;-72
2023/12/17 10:23:52;;;;;;;36.17;26.27;;;9.70;99.90;;;;;;5059392;28;20525;-72
2023/12/17 10:26:20;;;;;;;34.88;26.73;;;9.70;99.90;;;;;;5038447;28;20048;-73
2023/12/17 10:28:49;;;;;;;34.70;26.15;;;9.70;99.90;;;;;;5052115;28;20131;-73
2023/12/17 10:31:16;;;;;;;32.47;25.23;;;9.70;99.90;;;;;;5063954;28;20128;-72
2023/12/17 10:33:54;;;;;;;28.90;23.75;;;9.70;99.90;;;;;;5028595;28;20047;-73
2023/12/17 10:36:20;;;;;;;28.17;22.88;;;9.80;99.90;;;;;;5049146;28;20127;-73
2023/12/17 10:38:48;;;;;;;27.17;21.55;;;9.70;99.90;;;;;;5082763;28;20044;-73
2023/12/17 10:41:15;;;;;;;28.15;21.85;;;9.70;99.90;;;;;;5068408;28;20070;-72
2023/12/17 10:43:46;;;;;;;28.75;21.83;;;9.70;99.90;;;;;;5047437;28;20644;-72
2023/12/17 10:46:16;;;;;;;27.00;22.05;;;9.70;99.90;;;;;;5067283;28;20063;-72
2023/12/17 10:48:44;;;;;;;25.65;21.40;;;9.70;99.90;;;;;;5024339;28;20050;-72
2023/12/17 10:51:10;;;;;;;27.80;21.40;;;9.70;99.90;;;;;;5048540;28;20102;-72
2023/12/17 10:53:36;;;;;;;27.55;22.05;;;9.70;99.90;;;;;;5039502;28;20511;-73
2023/12/17 10:56:02;;;;;;;22.73;20.27;;;9.70;99.90;;;;;;5040422;28;20052;-73
2023/12/17 10:58:29;;;;;;;26.83;20.50;;;9.70;99.90;;;;;;5059325;28;20502;-72
2023/12/17 11:00:55;;;;;;;21.67;18.67;;;9.70;99.90;;;;;;5048028;28;20121;-72
2023/12/17 11:03:24;;;;;;;21.05;18.50;;;9.80;99.90;;;;;;5061055;28;20043;-72
2023/12/17 11:05:54;;;;;;;22.58;17.35;;;9.70;99.90;;;;;;5056808;28;20047;-72
2023/12/17 11:08:23;;;;;;;21.00;17.90;;;9.70;99.90;;;;;;5073134;28;20508;-72
2023/12/17 11:10:49;;;;;;;20.23;16.90;;;9.70;99.90;;;;;;5061382;28;20055;-72
2023/12/17 11:13:15;;;;;;;21.55;16.73;;;9.80;99.90;;;;;;5050978;28;20406;-72
2023/12/17 11:15:40;;;;;;;20.75;16.20;;;9.70;99.90;;;;;;5056950;28;20419;-72
2023/12/17 11:18:10;;;;;;;18.73;16.58;;;9.70;99.90;;;;;;5024713;28;20068;-73
2023/12/17 11:20:43;;;;;;;20.98;16.05;;;9.70;99.90;;;;;;5036750;28;20518;-74
2023/12/17 11:23:09;;;;;;;19.90;16.35;;;9.70;99.90;;;;;;5029963;28;20101;-72
2023/12/17 11:25:35;;;;;;;18.45;16.45;;;9.70;99.90;;;;;;5056575;28;20454;-73
2023/12/17 11:28:02;;;;;;;18.20;16.40;;;9.70;99.90;;;;;;5042030;28;20142;-72
2023/12/17 11:30:30;;;;;;;19.20;16.20;;;9.70;99.90;;;;;;5047598;28;20051;-72
2023/12/17 11:33:00;;;;;;;22.45;17.65;;;9.70;99.90;;;;;;5037877;28;20093;-72
2023/12/17 11:35:36;;;;;;;18.25;15.48;;;9.80;99.90;;;;;;5027413;28;20537;-72
2023/12/17 11:38:03;;;;;;;21.08;16.67;;;9.80;99.90;;;;;;5033400;28;20127;-72
2023/12/17 11:40:28;;;;;;;19.60;16.15;;;9.80;99.90;;;;;;5042666;28;20076;-72
2023/12/17 11:42:59;;;;;;;19.52;16.88;;;9.80;99.90;;;;;;5043939;28;20044;-72
2023/12/17 11:45:51;;;;;;;23.25;17.50;;;9.80;99.90;;;;;;5049471;28;20048;-72
2023/12/17 11:48:21;;;;;;;20.35;17.15;;;9.80;99.90;;;;;;5049289;28;20052;-73
2023/12/17 11:50:49;;;;;;;21.52;18.45;;;9.80;99.90;;;;;;5047656;28;20052;-73
2023/12/17 11:53:19;;;;;;;19.75;17.00;;;9.70;99.90;;;;;;5015346;28;20058;-73
2023/12/17 11:55:45;;;;;;;;;;;9.70;99.90;;;;;;5024134;28;20455;-73
2023/12/17 11:58:15;;;;;;;23.10;18.83;;;9.70;99.90;;;;;;5017526;28;19965;-73
2023/12/17 12:01:00;;;;;;;21.60;19.10;;;9.70;99.90;;;;;;5038528;28;20806;-73
2023/12/17 12:03:27;;;;;;;23.58;19.17;;;9.70;99.90;;;;;;5028460;28;20687;-72
2023/12/17 12:06:06;;;;;;;23.23;19.25;;;9.60;99.90;;;;;;5072510;27;20047;-73
2023/12/17 12:08:40;;;;;;;25.67;21.70;;;9.70;99.90;;;;;;5032636;28;20069;-73
2023/12/17 12:11:07;;;;;;;24.40;21.48;;;9.70;99.90;;;;;;5055321;28;20075;-73
2023/12/17 12:13:37;;;;;;;28.98;24.63;;;9.70;99.90;;;;;;5044804;28;20047;-73
2023/12/17 12:16:09;;;;;;;28.13;24.10;;;9.70;99.90;;;;;;5040666;28;20074;-73
2023/12/17 12:18:35;;;;;;;26.83;22.90;;;9.70;99.90;;;;;;5039072;28;20059;-72
2023/12/17 12:21:01;;;;;;;25.58;21.70;;;9.70;99.90;;;;;;5042198;27;20048;-73
2023/12/17 12:23:27;;;;;;;26.08;22.35;;;9.70;99.90;;;;;;5020387;28;20528;-73
2023/12/17 12:25:59;;;;;;;26.73;22.70;;;9.60;99.90;;;;;;4992006;28;20042;-73
2023/12/17 12:28:28;;;;;;;30.15;23.35;;;9.60;99.90;;;;;;5036529;28;20040;-73
2023/12/17 12:30:54;;;;;;;34.60;26.58;;;9.60;99.90;;;;;;5030181;28;20058;-73
2023/12/17 12:33:19;;;;;;;36.80;28.75;;;9.60;99.90;;;;;;5018721;28;20040;-72
2023/12/17 12:35:48;;;;;;;36.42;27.83;;;9.60;99.90;;;;;;5045229;28;20522;-73